Newfoundland, Kentucky
Current Conditions -  °F | °C
As of 2:50 PM on Saturday 25 Oct 2014 (Local Time) from KSYM Reporting Station
Overcast Overcast  
Wind Chill: 64°   Ceiling: 2000
Heat Index: 64°   Visibility: 10mi
Dew Point: 54°   Wind: 9mph
Humidity: 68%   Direction: 230°SW
Pressure: 29.99"   Gusts: 16mph
Location:  38.1397°N, 83.158°W
Report Text: KSYM 251850Z AUTO 23008G14KT 10SM OVC020 18/12 A2999 RMK AO2
Loading
Personal Weather Stations






























Interactive Weather Map
Tropical Storm Tracking
New forecast layout! Learn more

10-Day Weather Forecast

Advertisements
Track Severe Weather on mobile